Last 24 Hours

Canyon Lodge - 8,343ft

5 Minute Data | America/Los_Angeles
as of 9/2/26 5:10 AM PDT
Date & Time Temp (°F) RH (%) Dew Pt (°F) Wet Bulb (°F) Wind Dir (°) Wind Spd (mph) Wind Gust (mph) Wind Gst Dir (°)
9/2/26 - 0505 42.3 46 23.1 35.1 SW | 222 9.6 23.6 W | 270
9/2/26 - 0500 42.3 46 23.0 35.1 SW | 230 6.9 16.3 W | 262
9/2/26 - 0455 42.6 46 23.2 35.3 SW | 223 8.0 20.2 SW | 233
9/2/26 - 0450 42.8 46 23.4 35.5 SW | 233 9.3 20.1 WSW | 243
9/2/26 - 0445 42.9 46 23.4 35.5 SW | 236 8.6 17.7 SW | 233
9/2/26 - 0440 43.2 45 23.4 35.7 SW | 234 8.3 20.4 WNW | 286
9/2/26 - 0435 43.3 45 23.5 35.8 SW | 229 10.4 22.1 WNW | 299
9/2/26 - 0430 43.1 45 23.3 35.6 SW | 229 10.0 26.8 SSW | 210
9/2/26 - 0425 43.2 44 23.0 35.6 SW | 226 10.0 22.8 S | 179
9/2/26 - 0420 43.4 44 22.9 35.7 SW | 221 10.0 26.6 SW | 232
9/2/26 - 0415 43.2 44 22.9 35.5 SSW | 211 8.6 21.2 S | 177
9/2/26 - 0410 43.2 45 23.1 35.6 S | 191 9.0 29.7 S | 185
9/2/26 - 0405 43.3 45 23.4 35.7 SSW | 213 10.8 20.4 SW | 214
9/2/26 - 0400 43.7 45 23.7 36.1 SW | 217 9.9 26.2 SSW | 200
9/2/26 - 0355 43.4 45 23.3 35.8 SW | 215 8.3 23.5 S | 174
9/2/26 - 0350 43.6 44 23.4 35.9 SW | 231 8.3 18.4 WSW | 254
9/2/26 - 0345 43.5 44 23.0 35.8 SW | 236 8.2 18.6 W | 279
9/2/26 - 0340 44.1 44 23.6 36.3 SSW | 211 10.5 25.1 SSE | 162
9/2/26 - 0335 43.7 44 23.4 36.0 SW | 218 8.9 21.5 SW | 220
9/2/26 - 0330 43.8 45 23.7 36.2 SW | 226 9.7 18.5 WNW | 286
9/2/26 - 0325 43.8 45 23.7 36.1 SSW | 211 10.0 23.0 SW | 222
9/2/26 - 0320 43.7 44 23.4 36.0 SW | 216 11.2 24.7 S | 175
9/2/26 - 0315 43.8 44 23.6 36.1 SW | 229 9.1 20.8 W | 263
9/2/26 - 0310 43.8 44 23.6 36.1 SW | 220 7.5 21.7 S | 169
9/2/26 - 0305 44.1 44 23.8 36.3 SW | 231 7.0 15.3 W | 273
9/2/26 - 0300 43.9 44 23.5 36.1 SW | 215 8.5 18.8 SSW | 210
9/2/26 - 0255 44.0 44 23.5 36.2 SSW | 213 7.2 21.4 SW | 221
9/2/26 - 0250 43.8 44 23.2 36.0 SW | 218 7.1 21.2 WSW | 250
9/2/26 - 0245 44.2 44 23.6 36.3 SW | 227 7.2 18.5 WSW | 242
9/2/26 - 0240 44.1 44 23.3 36.2 SW | 219 8.2 28.0 WSW | 246
9/2/26 - 0235 44.3 44 23.8 36.4 SW | 226 8.7 22.0 WSW | 249
9/2/26 - 0230 44.6 44 24.0 36.6 SW | 232 9.5 22.6 SW | 220
9/2/26 - 0225 44.9 43 24.0 36.8 SSW | 208 10.3 24.5 SSE | 159
9/2/26 - 0220 44.9 43 23.7 36.8 SW | 226 8.8 18.1 WSW | 250
9/2/26 - 0215 45.3 43 24.2 37.1 WSW | 237 8.2 22.3 SW | 236
9/2/26 - 0210 45.3 44 24.4 37.1 SSW | 205 8.9 22.1 WSW | 252
9/2/26 - 0205 44.9 44 24.3 36.9 SW | 227 10.0 23.7 S | 191
9/2/26 - 0200 44.8 43 23.9 36.7 SSW | 213 8.8 20.4 WSW | 248
9/2/26 - 0155 44.8 43 23.9 36.7 SW | 228 7.2 27.0 SW | 230
9/2/26 - 0150 44.7 44 23.9 36.7 SSW | 206 8.5 20.3 W | 273
9/2/26 - 0145 44.8 43 23.9 36.7 SW | 215 8.7 20.4 SW | 234
9/2/26 - 0140 45.1 43 24.2 37.0 SW | 229 8.3 25.2 WSW | 257
9/2/26 - 0135 45.3 43 24.1 37.0 SSW | 209 9.8 22.0 SSW | 197
9/2/26 - 0130 45.5 43 24.2 37.2 SSW | 207 10.2 20.8 WNW | 294
9/2/26 - 0125 45.4 43 24.3 37.2 SSW | 212 11.1 26.7 SSW | 192
9/2/26 - 0120 45.3 43 24.2 37.1 SSW | 210 10.6 20.6 SW | 220
9/2/26 - 0115 45.3 43 24.2 37.1 SW | 216 8.4 20.6 SSE | 160
9/2/26 - 0110 45.4 43 24.2 37.1 SW | 225 9.8 24.3 SW | 232
9/2/26 - 0105 45.3 43 23.9 37.0 SW | 225 11.1 21.4 WSW | 254
9/2/26 - 0100 45.1 42 23.6 36.8 SW | 216 8.9 21.3 WSW | 242
9/2/26 - 0055 44.9 42 23.3 36.6 SW | 222 8.0 22.5 WSW | 247
9/2/26 - 0050 44.9 42 23.4 36.6 SW | 215 8.2 22.6 SW | 228
9/2/26 - 0045 45.2 42 23.6 36.8 SW | 218 9.0 22.4 S | 188
9/2/26 - 0040 45.3 42 23.5 36.9 SSW | 204 9.9 27.6 SSW | 197
9/2/26 - 0035 45.0 42 23.5 36.8 SW | 229 7.9 22.4 SW | 224
9/2/26 - 0030 44.7 42 23.2 36.5 SW | 230 9.1 21.9 SW | 217
9/2/26 - 0025 44.7 42 23.1 36.4 WSW | 238 8.5 21.6 W | 259
9/2/26 - 0020 44.8 42 23.2 36.5 WSW | 238 9.1 24.1 W | 262
9/2/26 - 0015 45.0 42 23.1 36.6 SW | 222 10.1 23.7 W | 270
9/2/26 - 0010 45.1 42 23.2 36.7 SSW | 212 8.7 22.7 S | 175
9/2/26 - 0005 45.4 42 23.4 36.9 SW | 223 7.8 15.8 SW | 220
9/2/26 - 0000 45.3 41 23.2 36.8 SW | 234 9.5 21.8 WSW | 253
9/1/26 - 2355 45.2 41 22.8 36.6 SW | 232 9.2 19.4 WSW | 256
9/1/26 - 2350 45.3 41 22.8 36.7 SW | 222 9.3 21.6 WSW | 258
9/1/26 - 2345 45.5 40 22.8 36.8 SW | 230 8.8 19.7 S | 188
9/1/26 - 2340 45.6 40 22.9 36.9 SW | 232 8.7 23.6 WSW | 249
9/1/26 - 2335 45.5 41 23.1 36.9 SW | 228 10.5 21.3 WSW | 256
9/1/26 - 2330 45.5 41 23.2 36.9 SW | 214 8.8 18.4 S | 180
9/1/26 - 2325 45.6 41 23.3 37.0 SW | 215 7.1 18.1 WSW | 241
9/1/26 - 2320 45.6 41 23.4 37.0 SW | 232 7.6 20.4 WSW | 244
9/1/26 - 2315 45.7 41 23.4 37.1 SW | 222 6.7 17.2 WSW | 247
9/1/26 - 2310 45.8 41 23.4 37.1 WSW | 242 10.3 25.3 SSW | 201
9/1/26 - 2305 45.7 41 23.3 37.1 SW | 232 9.0 24.7 WSW | 241
9/1/26 - 2300 46.2 41 23.7 37.4 SW | 236 10.7 22.3 WSW | 251
9/1/26 - 2255 46.4 41 24.0 37.7 WSW | 243 9.6 22.6 WSW | 243
9/1/26 - 2250 46.2 41 23.8 37.5 SW | 226 7.3 20.2 W | 277
9/1/26 - 2245 45.7 41 23.2 37.0 SW | 220 7.8 19.5 SSW | 208
9/1/26 - 2240 45.8 41 23.2 37.1 SW | 235 8.2 23.3 S | 186
9/1/26 - 2235 45.5 41 23.0 36.8 SW | 234 7.7 27.4 SSW | 199
9/1/26 - 2230 45.4 40 22.7 36.7 WSW | 238 5.9 18.4 WSW | 248
9/1/26 - 2225 45.6 40 22.6 36.8 SW | 228 8.7 20.5 SSW | 208
9/1/26 - 2220 45.6 39 22.4 36.8 SW | 217 8.5 16.8 SSE | 158
9/1/26 - 2215 45.3 40 22.3 36.5 SW | 235 8.7 18.0 WSW | 251
9/1/26 - 2210 45.4 40 22.6 36.7 SW | 227 7.1 21.1 W | 262
9/1/26 - 2205 45.5 40 22.6 36.7 SW | 227 7.0 30.8 WNW | 285
9/1/26 - 2200 45.5 40 22.6 36.7 SW | 224 6.0 18.8 WSW | 249
9/1/26 - 2155 45.5 40 22.8 36.8 SW | 232 7.5 19.3 SSW | 196
9/1/26 - 2150 45.4 41 22.9 36.8 SW | 225 5.2 14.8 SSW | 208
9/1/26 - 2145 45.6 41 23.2 37.0 WSW | 237 8.3 19.8 SW | 229
9/1/26 - 2140 45.7 41 23.3 37.1 WSW | 238 9.1 22.5 WSW | 250
9/1/26 - 2135 45.3 40 22.4 36.6 SW | 220 7.6 20.0 SW | 226
9/1/26 - 2130 45.6 40 22.6 36.8 WSW | 238 8.2 21.5 WNW | 290
9/1/26 - 2125 45.6 40 22.7 36.8 SW | 230 8.6 19.8 SW | 232
9/1/26 - 2120 45.8 40 22.7 37.0 SW | 222 7.9 22.0 WSW | 251
9/1/26 - 2115 46.0 40 22.8 37.1 SW | 227 9.0 24.1 SW | 234
9/1/26 - 2110 46.1 40 22.9 37.2 WSW | 239 8.4 20.2 W | 264
9/1/26 - 2105 45.7 39 22.1 36.8 SW | 234 8.0 22.2 W | 277
9/1/26 - 2100 45.7 39 22.2 36.8 SW | 228 5.6 15.9 S | 186
9/1/26 - 2055 46.0 39 22.4 37.0 SSW | 208 6.2 19.4 W | 261
9/1/26 - 2050 46.1 39 22.6 37.1 SW | 216 7.0 19.1 SW | 232
9/1/26 - 2045 46.3 39 22.8 37.3 SW | 230 7.6 19.5 W | 263
9/1/26 - 2040 46.6 39 22.9 37.4 SW | 220 7.3 19.9 WSW | 250
9/1/26 - 2035 46.7 38 22.6 37.4 SW | 218 6.6 17.3 WSW | 256
9/1/26 - 2030 46.7 39 22.8 37.4 WSW | 238 8.5 22.1 WSW | 238
9/1/26 - 2025 46.2 39 22.6 37.1 WSW | 245 9.8 21.1 SSW | 213
9/1/26 - 2020 46.3 39 22.5 37.2 WSW | 244 10.4 24.8 W | 264
9/1/26 - 2015 46.6 39 22.8 37.4 WSW | 237 9.5 24.3 SW | 231
9/1/26 - 2010 46.6 38 22.6 37.3 SW | 235 7.4 25.2 SW | 222
9/1/26 - 2005 46.6 38 22.6 37.3 SW | 235 9.1 18.4 WSW | 250
9/1/26 - 2000 46.4 38 22.5 37.2 SSW | 207 6.9 19.0 W | 267
9/1/26 - 1955 46.6 38 22.6 37.3 WSW | 238 12.1 27.2 WSW | 240
9/1/26 - 1950 46.6 38 22.4 37.3 SW | 225 6.8 17.6 WSW | 242
9/1/26 - 1945 46.8 38 22.3 37.4 SSW | 213 9.8 24.7 WSW | 248
9/1/26 - 1940 46.7 37 22.1 37.2 SW | 222 8.6 19.2 SW | 214
9/1/26 - 1935 46.9 37 22.3 37.4 SSW | 206 8.4 20.6 W | 268
9/1/26 - 1930 47.1 38 22.7 37.7 SW | 217 9.4 21.5 WSW | 255
9/1/26 - 1925 47.1 38 23.1 37.8 WSW | 241 9.8 19.5 WSW | 246
9/1/26 - 1920 47.3 38 23.0 37.8 SW | 229 10.0 24.9 SW | 235
9/1/26 - 1915 47.4 38 23.1 37.9 SW | 226 5.5 15.7 WSW | 238
9/1/26 - 1910 47.6 38 23.4 38.1 WSW | 239 8.9 23.7 WSW | 238
9/1/26 - 1905 48.0 38 23.5 38.3 SW | 231 8.8 23.0 SSW | 198
9/1/26 - 1900 48.4 37 23.7 38.6 SW | 236 9.0 16.8 SSW | 204
9/1/26 - 1855 48.3 37 23.3 38.4 SW | 225 9.3 18.2 WSW | 252
9/1/26 - 1850 49.0 37 23.8 38.9 SW | 219 10.2 21.0 SW | 232
9/1/26 - 1845 49.1 37 23.8 39.0 SW | 230 5.9 15.2 WSW | 253
9/1/26 - 1840 49.2 37 23.8 39.1 SW | 216 8.2 21.4 SSW | 209
9/1/26 - 1835 49.6 36 24.0 39.3 SW | 223 6.6 18.9 S | 188
9/1/26 - 1830 50.0 36 24.2 39.5 SSW | 192 3.7 15.2 S | 190
9/1/26 - 1825 50.0 36 24.0 39.5 S | 190 6.8 19.4 S | 186
9/1/26 - 1820 50.1 37 24.6 39.7 SSW | 203 5.3 12.5 SSW | 193
9/1/26 - 1815 50.8 38 26.2 40.6 SW | 228 4.0 11.9 S | 190
9/1/26 - 1810 51.0 39 27.0 40.9 SW | 222 6.3 17.4 WSW | 253
9/1/26 - 1805 51.2 38 26.7 40.9 SSW | 207 5.9 15.1 WSW | 256
9/1/26 - 1800 51.1 38 26.5 40.8 SSW | 201 7.9 20.5 SSW | 210
9/1/26 - 1755 51.5 38 26.8 41.0 SW | 216 6.4 21.5 S | 169
9/1/26 - 1750 51.5 38 26.6 41.0 WSW | 240 5.9 21.0 W | 266
9/1/26 - 1745 52.0 37 26.3 41.2 SW | 223 5.2 14.4 WNW | 287
9/1/26 - 1740 52.1 38 26.9 41.4 SSW | 194 5.1 13.4 S | 177
9/1/26 - 1735 52.1 35 25.5 41.0 S | 185 7.7 15.7 SSE | 163
9/1/26 - 1730 52.3 36 26.1 41.3 SW | 231 6.4 18.7 SSW | 198
9/1/26 - 1725 52.7 36 26.6 41.6 SSW | 209 5.9 16.4 SSW | 211
9/1/26 - 1720 52.7 37 27.0 41.7 SW | 228 7.3 18.3 W | 271
9/1/26 - 1715 53.2 38 28.2 42.4 SW | 233 4.6 14.7 SW | 232
9/1/26 - 1710 53.6 38 28.8 42.7 SSW | 211 4.9 18.2 SSW | 193
9/1/26 - 1705 54.0 39 29.8 43.2 S | 190 10.1 24.0 S | 186
9/1/26 - 1700 54.7 39 30.3 43.7 WSW | 243 4.1 15.0 SSW | 209
9/1/26 - 1655 54.4 39 29.8 43.4 SW | 222 4.6 13.1 WSW | 258
9/1/26 - 1650 54.7 37 29.2 43.4 WSW | 244 6.3 19.5 WSW | 243
9/1/26 - 1645 55.0 36 28.6 43.3 WSW | 254 5.9 17.0 NNW | 333
9/1/26 - 1640 55.2 36 28.8 43.5 SSW | 208 5.1 11.8 SW | 231
9/1/26 - 1635 55.5 36 29.2 43.7 SW | 227 4.9 16.5 SSE | 149
9/1/26 - 1630 55.5 37 29.4 43.8 W | 280 3.4 14.9 W | 273
9/1/26 - 1625 55.8 36 29.5 44.0 SW | 231 4.4 15.0 WNW | 293
9/1/26 - 1620 56.1 36 29.7 44.2 WSW | 243 3.0 12.1 W | 271
9/1/26 - 1615 55.7 37 29.6 43.9 SW | 214 3.9 16.2 SW | 225
9/1/26 - 1610 56.0 37 29.8 44.1 SW | 216 5.8 17.2 S | 169
9/1/26 - 1605 56.4 36 30.1 44.4 WSW | 255 3.8 14.9 WSW | 254
9/1/26 - 1600 57.0 37 30.7 44.9 SW | 233 4.4 12.8 S | 179
9/1/26 - 1555 56.2 36 29.9 44.3 WSW | 248 5.0 20.2 WSW | 246
9/1/26 - 1550 56.1 36 29.5 44.1 S | 179 4.8 16.1 S | 191
9/1/26 - 1545 56.6 36 29.9 44.5 S | 187 7.9 17.9 SSW | 206
9/1/26 - 1540 55.8 36 29.3 43.9 SSW | 198 6.5 16.7 SSW | 192
9/1/26 - 1535 56.4 36 29.9 44.4 S | 179 7.7 21.1 SSE | 147
9/1/26 - 1530 56.6 36 30.3 44.6 S | 184 7.3 17.5 SSE | 155
9/1/26 - 1525 56.4 37 30.6 44.6 SSW | 206 6.6 22.0 SSE | 156
9/1/26 - 1520 55.8 38 30.5 44.3 S | 177 5.4 12.2 S | 177
9/1/26 - 1515 56.6 39 32.1 45.2 S | 174 7.0 17.2 SE | 137
9/1/26 - 1510 56.8 39 32.0 45.2 SSW | 206 6.3 15.8 WSW | 255
9/1/26 - 1505 56.7 38 31.6 45.1 SSW | 204 9.2 25.0 SSE | 168
9/1/26 - 1500 56.4 37 30.8 44.7 SW | 219 5.6 14.3 SSE | 167
9/1/26 - 1455 57.4 36 30.9 45.1 SSE | 153 4.1 14.4 SSW | 193
9/1/26 - 1450 57.1 37 31.1 45.1 SW | 223 4.4 10.4 SSW | 206
9/1/26 - 1445 57.7 37 31.9 45.6 SW | 218 3.1 12.8 S | 180
9/1/26 - 1440 57.9 38 32.5 45.9 SSW | 209 2.5 10.8 S | 184
9/1/26 - 1435 57.4 39 32.4 45.6 S | 189 7.4 18.1 SSW | 208
9/1/26 - 1430 57.8 37 31.6 45.6 S | 184 3.7 15.6 SSW | 195
9/1/26 - 1425 57.7 37 31.3 45.4 S | 187 5.5 20.1 S | 177
9/1/26 - 1420 57.5 36 31.1 45.2 SSW | 196 3.8 12.7 S | 176
9/1/26 - 1415 55.8 36 29.6 44.0 SSW | 209 6.0 12.9 SSW | 207
9/1/26 - 1410 56.1 36 29.8 44.2 S | 181 9.0 20.4 SSE | 161
9/1/26 - 1405 57.4 37 31.2 45.2 SSW | 205 5.5 14.1 SSW | 195
9/1/26 - 1400 56.1 37 30.0 44.2 S | 185 7.6 21.6 SSE | 163
9/1/26 - 1355 56.9 37 31.0 45.0 S | 176 8.0 18.7 SSE | 152
9/1/26 - 1350 57.0 38 31.6 45.2 SW | 233 4.2 12.2 SW | 214
9/1/26 - 1345 57.7 38 32.3 45.8 SW | 216 3.2 11.6 SE | 138
9/1/26 - 1340 57.4 38 32.0 45.5 SW | 223 3.9 12.2 WSW | 239
9/1/26 - 1335 56.4 38 31.1 44.8 SW | 231 5.2 13.5 WSW | 258
9/1/26 - 1330 56.5 38 31.4 44.9 SSW | 194 8.1 21.1 S | 171
9/1/26 - 1325 57.1 39 32.5 45.6 S | 174 6.9 20.9 SSW | 192
9/1/26 - 1320 58.2 39 33.5 46.4 SSW | 208 3.9 11.6 S | 179
9/1/26 - 1315 57.9 38 32.7 46.0 S | 191 4.5 14.7 S | 169
9/1/26 - 1310 56.3 39 31.6 44.9 S | 190 6.8 15.4 SSW | 203
9/1/26 - 1305 57.2 40 33.2 45.9 SSW | 193 5.7 21.5 S | 182
9/1/26 - 1300 57.1 40 33.0 45.8 S | 184 4.6 14.8 SSE | 159
9/1/26 - 1255 56.0 41 32.8 45.2 SW | 218 5.4 15.3 SSW | 212
9/1/26 - 1250 55.8 41 32.7 45.0 S | 190 6.7 16.5 S | 185
9/1/26 - 1245 55.4 41 32.2 44.7 S | 188 8.5 17.5 SSW | 204
9/1/26 - 1240 56.3 41 33.0 45.4 S | 185 7.1 21.7 S | 191
9/1/26 - 1235 56.1 40 32.0 45.0 S | 186 8.9 20.8 SSE | 166
9/1/26 - 1230 55.7 39 31.3 44.5 S | 170 5.8 17.3 SSE | 160
9/1/26 - 1225 57.0 38 31.8 45.3 SSW | 194 5.7 13.3 SSW | 195
9/1/26 - 1220 58.0 38 32.7 46.0 S | 186 6.4 15.6 S | 188
9/1/26 - 1215 58.3 38 33.0 46.3 ENE | 69 1.3 4.6 SE | 127
9/1/26 - 1210 57.2 39 32.5 45.6 SSW | 192 3.5 11.2 SSW | 203
9/1/26 - 1205 56.2 39 31.4 44.8 SSW | 197 4.3 11.8 SSW | 212
9/1/26 - 1200 56.3 38 31.3 44.8 SSW | 194 5.4 13.3 S | 180
9/1/26 - 1155 56.4 39 31.5 44.9 SW | 224 2.5 7.9 E | 91
9/1/26 - 1150 57.6 38 32.4 45.8 SE | 141 3.5 13.4 ESE | 108
9/1/26 - 1145 55.9 39 31.4 44.7 S | 186 4.3 13.9 SSE | 164
9/1/26 - 1140 56.0 39 31.1 44.6 S | 171 6.3 16.1 SSE | 159
9/1/26 - 1135 55.8 39 31.0 44.5 S | 188 3.8 11.3 S | 179
9/1/26 - 1130 55.4 38 30.5 44.1 SE | 129 5.9 15.3 SSE | 157
9/1/26 - 1125 55.5 39 30.8 44.2 SE | 139 2.2 9.5 SSW | 212
9/1/26 - 1120 54.7 39 30.0 43.6 WSW | 257 1.6 6.4 SSW | 213
9/1/26 - 1115 56.1 38 31.1 44.6 S | 169 3.2 11.8 S | 176
9/1/26 - 1110 56.3 38 31.3 44.8 ESE | 111 2.7 9.3 SE | 127
9/1/26 - 1105 54.8 39 30.2 43.7 SE | 143 3.0 9.0 SSE | 158
9/1/26 - 1100 55.4 39 31.0 44.2 SSW | 208 4.2 12.1 S | 181
9/1/26 - 1055 54.9 40 30.8 44.0 NW | 311 1.7 6.5 WSW | 257
9/1/26 - 1050 54.4 39 29.9 43.5 SE | 135 2.2 8.4 S | 188
9/1/26 - 1045 53.5 39 29.4 42.9 SSE | 152 3.5 13.4 ESE | 117
9/1/26 - 1040 53.8 39 29.8 43.1 S | 177 3.9 12.8 SSW | 211
9/1/26 - 1035 54.2 40 30.5 43.6 SSW | 208 2.5 9.0 S | 184
9/1/26 - 1030 55.4 40 31.7 44.5 SSW | 207 1.6 6.7 S | 184
9/1/26 - 1025 54.1 40 30.4 43.5 SSW | 193 4.6 17.6 S | 180
9/1/26 - 1020 53.5 41 30.2 43.1 SSW | 192 3.6 11.6 SSE | 167
9/1/26 - 1015 53.0 42 30.3 42.9 S | 185 5.5 15.6 SSW | 205
9/1/26 - 1010 53.5 42 30.7 43.3 S | 190 2.3 10.3 S | 177
9/1/26 - 1005 52.8 41 29.8 42.6 S | 182 4.4 11.4 WSW | 256
9/1/26 - 1000 52.2 40 28.8 42.0 SW | 235 5.5 16.9 WSW | 250
9/1/26 - 0955 53.0 41 29.8 42.8 SW | 233 4.0 11.7 W | 267
9/1/26 - 0950 52.2 41 29.3 42.2 SSW | 211 5.2 11.9 SSE | 165
9/1/26 - 0945 53.1 42 30.8 43.2 SSW | 207 2.0 9.2 SSW | 207
9/1/26 - 0940 52.2 42 29.8 42.4 WSW | 239 2.8 12.2 WNW | 292
9/1/26 - 0935 51.7 42 29.3 42.0 S | 171 5.3 15.2 SW | 221
9/1/26 - 0930 52.7 41 29.7 42.6 S | 170 2.7 7.8 SE | 143
9/1/26 - 0925 52.0 42 29.5 42.2 SE | 141 2.1 8.3 S | 174
9/1/26 - 0920 51.4 42 28.9 41.7 SW | 216 3.6 11.8 SSE | 167
9/1/26 - 0915 51.2 41 28.6 41.5 SW | 221 4.2 8.9 S | 178
9/1/26 - 0910 50.9 42 28.8 41.4 SW | 232 3.9 11.0 S | 190
9/1/26 - 0905 51.4 42 29.4 41.8 SSW | 210 1.3 5.6 SW | 220
9/1/26 - 0900 50.7 43 29.1 41.4 SSW | 213 4.2 11.1 WSW | 240
9/1/26 - 0855 50.6 43 28.9 41.3 SW | 233 4.9 11.7 WSW | 253
9/1/26 - 0850 50.6 43 28.8 41.2 WSW | 237 3.3 11.3 SW | 226
9/1/26 - 0845 50.0 43 28.2 40.8 SSW | 210 4.1 11.8 SSW | 199
9/1/26 - 0840 50.4 42 28.4 41.0 SW | 224 3.3 8.7 SW | 219
9/1/26 - 0835 50.2 42 27.7 40.7 SSW | 200 3.0 7.0 SSE | 166
9/1/26 - 0830 49.8 42 27.5 40.5 SSW | 207 3.3 9.2 WNW | 292
9/1/26 - 0825 49.7 42 27.5 40.4 SSW | 203 3.5 12.9 SSW | 198
9/1/26 - 0820 49.0 42 27.0 39.9 SW | 222 5.5 13.5 WSW | 243
9/1/26 - 0815 48.4 42 26.4 39.4 SSW | 208 6.0 14.6 WSW | 252
9/1/26 - 0810 48.2 42 26.2 39.2 SSW | 209 6.0 15.2 SSE | 160
9/1/26 - 0805 48.1 42 26.0 39.1 SSW | 193 5.9 14.4 S | 189
9/1/26 - 0800 48.0 42 25.8 39.0 S | 178 4.1 11.9 S | 172
9/1/26 - 0755 47.8 42 25.8 38.9 SSW | 208 2.7 11.0 S | 175
9/1/26 - 0750 47.6 41 25.4 38.7 S | 183 5.1 14.7 SSE | 158
9/1/26 - 0745 47.5 42 25.3 38.6 SSW | 196 4.5 12.1 SSW | 192
9/1/26 - 0740 47.1 41 24.8 38.2 SSW | 203 5.5 17.0 SSE | 168
9/1/26 - 0735 47.4 41 25.1 38.5 S | 178 3.6 10.5 S | 176
9/1/26 - 0730 47.7 42 25.5 38.8 SSW | 194 4.4 13.3 S | 183
9/1/26 - 0725 47.4 41 25.0 38.4 SW | 217 2.8 11.6 SSW | 212
9/1/26 - 0720 47.0 41 24.6 38.1 SW | 232 4.5 15.5 WSW | 238
9/1/26 - 0715 46.6 41 24.1 37.7 SSW | 206 2.5 8.6 SSW | 201
9/1/26 - 0710 46.7 41 24.4 37.9 WSW | 238 4.5 13.5 WSW | 251
9/1/26 - 0705 46.6 41 24.0 37.7 SW | 231 3.8 9.7 WSW | 250
9/1/26 - 0700 46.6 41 24.0 37.7 SSW | 206 3.6 11.6 SW | 231
9/1/26 - 0655 46.7 41 24.0 37.8 SW | 232 2.6 10.3 WSW | 245
9/1/26 - 0650 46.9 41 24.3 38.0 SW | 221 3.8 12.3 SSW | 193
9/1/26 - 0645 46.8 41 24.2 37.9 SW | 223 3.8 18.3 W | 280
9/1/26 - 0640 46.2 41 23.8 37.5 SW | 220 2.4 8.4 SW | 224
9/1/26 - 0635 46.3 41 24.1 37.6 WSW | 237 3.3 12.7 SW | 228
9/1/26 - 0630 46.3 41 23.7 37.5 WSW | 239 3.1 12.3 WSW | 243
9/1/26 - 0625 46.4 40 23.6 37.5 WSW | 252 2.7 10.6 SW | 215
9/1/26 - 0620 46.4 40 23.4 37.5 SSW | 198 2.6 10.3 WSW | 239
9/1/26 - 0615 46.7 40 23.9 37.7 WSW | 252 3.5 11.3 W | 262
9/1/26 - 0610 46.8 40 23.9 37.8 SW | 228 3.1 13.3 SSW | 212
9/1/26 - 0605 46.8 40 24.0 37.8 SW | 223 2.0 8.1 WSW | 254
9/1/26 - 0600 46.9 40 23.9 37.9 SSW | 213 2.8 9.4 WNW | 282
9/1/26 - 0555 47.1 40 24.3 38.1 WSW | 242 2.9 10.8 WSW | 239
9/1/26 - 0550 46.9 41 24.2 37.9 WSW | 249 2.1 8.3 NW | 326
9/1/26 - 0545 46.9 41 24.4 38.0 SW | 232 1.2 12.2 W | 276
9/1/26 - 0540 47.1 41 24.6 38.2 SW | 234 2.2 6.8 WNW | 289
9/1/26 - 0535 47.0 41 24.3 38.0 WSW | 256 1.8 5.6 SW | 224
9/1/26 - 0530 47.4 40 24.6 38.3 W | 268 3.7 12.9 WNW | 284
9/1/26 - 0525 47.7 41 25.0 38.6 WSW | 239 3.3 10.5 WSW | 248
9/1/26 - 0520 47.7 40 24.9 38.6 SSW | 208 3.2 9.6 SW | 225
9/1/26 - 0515 47.4 40 24.4 38.3 WSW | 256 2.2 8.6 NW | 304
9/1/26 - 0510 47.6 40 24.4 38.4 WSW | 239 2.4 10.5 W | 265
9/1/26 - 0505 47.6 40 24.6 38.4 SW | 226 2.9 7.9 SSW | 199
Max 58.3 46 33.5 46.4 - 12.1 30.8 -
Avg 49.5 40 26.3 39.9 - 6.3 17.0 -
Min 42.3 35 22.1 35.1 - 1.2 4.6 -